Portada
METAR-TAF:

METAR-TAF

Aeropuertos :

West Memphis, Arkansas, Estados Unidos

latitud: 35-08N, longitud: 090-14W, altitud: 65 m

Observación

El informe se hizo hace 42 minutos, a las 23:53 UTC
Viento 6 kt del sur-suroeste
Temperatura 30°C
Humedad 46%
Presión 1016 hPa
Visibilidad: 16.1 km
Cielo despejado

METAR: KAWM 022353Z AUTO 20006KT 10SM CLR 30/17 A3001 RMK AO2 SLP159 T03000172 10322 20300 56010

Hora: 19:35 (00:35 UTC)


TAF: falta

Observaciones y pronósticos meteorológicos de más de 4000 aeropuertos (mensajes METAR y TAF).

Los puntos amarillos y rojos representan las estaciones disponibles.

Ponga el ratón en el punto deseado para ver el nombre de la estación.

Haga clic para ver las observaciones y los pronósticos meteorológicos.

Para cambiar el mapa : haga clic en los botones verdes con una cruz de color negro para hacer un zoom, en el botón verde con un guión para alejar o en las flechas verdes para mapas adyacentes.


METAR-TAF: